首页
METAR-TAF:

METAR-TAF

机场 :

馬哈奇卡拉, 俄罗斯

纬度: 42-49-01N, 经度: 047-39-08E, 海拔: 4米

当前天气观测

该预报发布于33分钟前的05:30 UTC
风速10节,风向北转西北
温度 7°C
湿度 76%
气压 1022 hPa
能见度10公里或以上
阴天层高于4000英尺

METAR: URML 230530Z 33005MPS 9999 OVC040 07/03 Q1022 R32/01//70 NOSIG RMK QFE766/1021

时间: 09:03 (06:03 UTC)

预报

该预报发布于1小时和3分钟前的05:00 UTC
预报有效从23日的 06点(UTC)到 23日的 15点(UTC)
风速10节,风向北转西北,有时为21节阵风
能見度: 5000
散云层高于1100英尺
多云层高于1700英尺
轻雾

TAF: URML 230500Z 2306/2315 33005G11MPS 5000 BR SCT011 BKN017

超过4000个机场的气象观测和天气预报(METAR&TAF报告)。

可查询的气象台以黄色和红色小点在地图上表示。

将鼠标移到小点上方,可查看气象台名称。

然后点击查看天气观测和预报。

如需切换地图:点击带黑十字的绿色按钮放大地图;点击带横线的绿色按钮缩小地图;或者点击绿色箭头查看邻近地区的地图。


METAR-TAF: